createdAt,value
2022-08-30T00:02:27.216Z,9.30
2022-08-30T00:04:55.260Z,10.05
2022-08-30T00:07:23.955Z,6.80
2022-08-30T00:09:51.688Z,11.20
2022-08-30T00:12:21.069Z,4.55
2022-08-30T00:14:49.492Z,4.22
2022-08-30T00:17:19.377Z,6.55
2022-08-30T00:19:46.957Z,10.55
2022-08-30T00:22:14.495Z,10.48
2022-08-30T00:24:42.039Z,6.38
2022-08-30T00:27:09.951Z,11.85
2022-08-30T00:29:37.398Z,6.28
2022-08-30T00:32:05.787Z,5.35
2022-08-30T00:34:34.495Z,6.38
2022-08-30T00:37:02.291Z,6.07
2022-08-30T00:39:30.283Z,7.22
2022-08-30T00:41:57.951Z,5.32
2022-08-30T00:44:25.777Z,5.32
2022-08-30T00:46:53.295Z,8.10
2022-08-30T00:49:21.159Z,8.88
2022-08-30T00:51:48.774Z,8.60
2022-08-30T00:54:17.253Z,7.90
2022-08-30T00:56:46.816Z,3.53
2022-08-30T00:59:14.817Z,9.23
2022-08-30T01:01:44.818Z,9.57
2022-08-30T01:04:15.178Z,7.45
2022-08-30T01:06:42.975Z,8.52
2022-08-30T01:09:11.528Z,4.38
2022-08-30T01:11:42.724Z,6.10
2022-08-30T01:14:11.825Z,6.50
2022-08-30T01:16:41.593Z,4.25
2022-08-30T01:19:31.403Z,6.38
2022-08-30T01:22:23.071Z,8.68
2022-08-30T01:24:55.437Z,6.55
2022-08-30T01:27:24.266Z,4.05
2022-08-30T01:29:52.892Z,5.20
2022-08-30T01:32:29.070Z,3.75
2022-08-30T01:34:57.666Z,7.90
2022-08-30T01:37:30.955Z,8.60
2022-08-30T01:39:59.588Z,5.88
2022-08-30T01:42:28.677Z,5.85
2022-08-30T01:44:59.284Z,9.57
2022-08-30T01:47:27.548Z,6.28
2022-08-30T01:49:55.449Z,7.90
2022-08-30T01:52:22.975Z,6.82
2022-08-30T01:54:51.165Z,6.40
2022-08-30T01:57:21.464Z,8.35
2022-08-30T01:59:50.366Z,8.82
2022-08-30T02:02:21.866Z,9.15
2022-08-30T02:04:50.033Z,9.48
2022-08-30T02:07:17.845Z,7.50
2022-08-30T02:09:46.321Z,9.93
2022-08-30T02:12:14.935Z,6.65
2022-08-30T02:14:43.628Z,6.22
2022-08-30T02:17:14.237Z,7.13
2022-08-30T02:19:42.835Z,7.45
2022-08-30T02:22:10.893Z,5.25
2022-08-30T02:24:38.724Z,9.18
2022-08-30T02:27:06.556Z,5.50
2022-08-30T02:29:34.532Z,5.95
2022-08-30T02:32:02.601Z,8.02
2022-08-30T02:34:30.308Z,13.00
2022-08-30T02:36:58.697Z,5.90
2022-08-30T02:39:26.660Z,5.80
2022-08-30T02:41:54.359Z,6.20
2022-08-30T02:44:21.848Z,16.10
2022-08-30T02:46:49.542Z,4.38
2022-08-30T02:49:33.216Z,6.05
2022-08-30T02:52:04.102Z,5.97
2022-08-30T02:54:33.378Z,8.55
2022-08-30T02:57:04.922Z,8.75
2022-08-30T02:59:33.850Z,6.75
2022-08-30T03:02:01.614Z,6.00
2022-08-30T03:04:29.933Z,8.18
2022-08-30T03:06:57.545Z,4.53
2022-08-30T03:09:25.275Z,4.90
2022-08-30T03:11:53.009Z,11.15
2022-08-30T03:14:20.771Z,6.95
2022-08-30T03:16:48.490Z,5.50
2022-08-30T03:19:16.285Z,5.15
2022-08-30T03:21:44.886Z,5.55
2022-08-30T03:24:13.728Z,6.20
2022-08-30T03:26:46.049Z,5.32
2022-08-30T03:29:14.272Z,6.10
2022-08-30T03:31:53.166Z,4.75
2022-08-30T03:34:22.960Z,5.10
2022-08-30T03:36:53.099Z,5.60
2022-08-30T03:39:23.104Z,7.53
2022-08-30T03:41:51.838Z,7.80
2022-08-30T03:44:20.684Z,8.50
2022-08-30T03:46:50.494Z,5.18
2022-08-30T03:49:18.774Z,5.35
2022-08-30T03:51:47.718Z,9.38
2022-08-30T03:54:15.739Z,6.97
2022-08-30T03:56:44.365Z,10.35
2022-08-30T03:59:12.277Z,7.82
2022-08-30T04:01:42.051Z,7.97
2022-08-30T04:04:09.529Z,9.60
2022-08-30T04:06:37.520Z,6.90
2022-08-30T04:09:05.835Z,7.13
2022-08-30T04:11:33.766Z,7.80
2022-08-30T04:14:01.842Z,9.32
2022-08-30T04:16:29.755Z,8.32
2022-08-30T04:18:57.471Z,9.43
2022-08-30T04:21:26.480Z,7.78
2022-08-30T04:23:54.312Z,9.68
2022-08-30T04:26:22.120Z,4.63
2022-08-30T04:28:49.750Z,7.32
2022-08-30T04:31:17.867Z,4.43
2022-08-30T04:33:46.141Z,13.10
2022-08-30T04:36:14.121Z,8.95
2022-08-30T04:38:42.713Z,5.30
2022-08-30T04:41:17.198Z,8.35
2022-08-30T04:43:46.266Z,7.88
2022-08-30T04:46:14.665Z,8.48
2022-08-30T04:48:42.705Z,8.82
2022-08-30T04:51:14.151Z,8.30
2022-08-30T04:56:16.230Z,9.55
2022-08-30T04:58:49.097Z,8.77
2022-08-30T05:01:31.589Z,7.05
2022-08-30T05:03:59.714Z,4.88
2022-08-30T05:06:31.107Z,6.72
2022-08-30T05:09:00.758Z,5.93
2022-08-30T05:11:29.029Z,11.27
2022-08-30T05:13:56.554Z,9.80
2022-08-30T05:16:24.231Z,11.02
2022-08-30T05:18:52.685Z,10.02
2022-08-30T05:21:26.566Z,9.70
2022-08-30T05:23:56.195Z,5.70
2022-08-30T05:26:27.461Z,12.07
2022-08-30T05:28:55.443Z,13.10
2022-08-30T05:31:32.895Z,9.88
2022-08-30T05:34:01.087Z,9.40
2022-08-30T05:36:30.540Z,11.70
2022-08-30T05:38:58.324Z,7.30
2022-08-30T05:41:27.279Z,7.97
2022-08-30T05:43:56.456Z,9.95
2022-08-30T05:46:24.486Z,10.77
2022-08-30T05:48:52.274Z,11.05
2022-08-30T05:51:23.020Z,10.07
2022-08-30T05:53:52.483Z,8.35
2022-08-30T05:56:24.890Z,10.70
2022-08-30T05:58:54.515Z,10.82
2022-08-30T06:01:25.502Z,10.40
2022-08-30T06:06:22.097Z,7.20
2022-08-30T06:08:50.440Z,9.98
2022-08-30T06:11:20.803Z,12.57
2022-08-30T06:13:49.755Z,6.95
2022-08-30T06:16:19.441Z,11.82
2022-08-30T06:18:47.725Z,11.48
2022-08-30T06:21:20.869Z,10.25
2022-08-30T06:23:48.520Z,10.15
2022-08-30T06:26:17.049Z,8.38
2022-08-30T06:28:45.462Z,10.57
2022-08-30T06:31:15.656Z,11.93
2022-08-30T06:33:44.302Z,11.40
2022-08-30T06:36:17.522Z,10.10
2022-08-30T06:38:45.845Z,11.75
2022-08-30T06:41:17.910Z,11.18
2022-08-30T06:43:49.097Z,12.50
2022-08-30T06:46:21.278Z,13.35
2022-08-30T06:48:49.054Z,7.90
2022-08-30T06:51:21.271Z,11.68
2022-08-30T06:53:49.830Z,11.90
2022-08-30T06:56:18.985Z,9.05
2022-08-30T06:58:47.440Z,12.50
2022-08-30T07:01:18.104Z,8.43
2022-08-30T07:03:45.802Z,6.97
2022-08-30T07:06:13.638Z,9.68
2022-08-30T07:08:41.466Z,7.65
2022-08-30T07:11:09.464Z,9.52
2022-08-30T07:13:37.460Z,12.93
2022-08-30T07:16:12.919Z,14.40
2022-08-30T07:18:56.490Z,10.40
2022-08-30T07:21:40.324Z,6.80
2022-08-30T07:24:09.893Z,9.63
2022-08-30T07:26:41.272Z,9.98
2022-08-30T07:29:10.187Z,11.10
2022-08-30T07:31:39.193Z,11.43
2022-08-30T07:34:08.235Z,10.50
2022-08-30T07:36:40.286Z,10.10
2022-08-30T07:39:09.937Z,13.05
2022-08-30T07:41:38.873Z,19.80
2022-08-30T07:44:08.196Z,12.73
2022-08-30T07:46:38.807Z,16.80
2022-08-30T07:49:11.338Z,8.88
2022-08-30T07:51:40.691Z,11.50
2022-08-30T07:54:08.849Z,10.85
2022-08-30T07:56:36.461Z,12.55
2022-08-30T07:59:04.737Z,12.18
2022-08-30T08:01:32.573Z,22.55
2022-08-30T08:04:00.186Z,11.30
2022-08-30T08:06:27.888Z,9.77
2022-08-30T08:09:02.534Z,16.10
2022-08-30T08:11:33.608Z,7.20
2022-08-30T08:14:03.058Z,12.70
2022-08-30T08:16:32.846Z,10.98
2022-08-30T08:19:00.687Z,11.80
2022-08-30T08:21:28.618Z,12.05
2022-08-30T08:23:56.355Z,15.82
2022-08-30T08:26:23.925Z,12.05
2022-08-30T08:28:51.406Z,8.02
2022-08-30T08:31:27.381Z,11.95
2022-08-30T08:34:03.211Z,12.38
2022-08-30T08:36:32.541Z,14.73
2022-08-30T08:39:01.197Z,9.82
2022-08-30T08:41:43.438Z,16.52
2022-08-30T08:44:34.590Z,10.68
2022-08-30T08:47:39.969Z,9.65
2022-08-30T08:50:20.650Z,7.47
2022-08-30T08:53:36.123Z,18.33
2022-08-30T08:56:12.951Z,9.27
2022-08-30T08:58:45.282Z,15.45
2022-08-30T09:01:15.375Z,10.75
2022-08-30T09:03:43.593Z,14.90
2022-08-30T09:06:29.682Z,20.67
2022-08-30T09:08:57.562Z,12.55
2022-08-30T09:11:32.407Z,14.80
2022-08-30T09:14:00.112Z,11.30
2022-08-30T09:17:13.969Z,15.02
2022-08-30T09:19:59.310Z,8.93
2022-08-30T09:22:33.285Z,10.88
2022-08-30T09:25:12.028Z,12.75
2022-08-30T09:27:45.462Z,7.07
2022-08-30T09:30:22.909Z,11.13
2022-08-30T09:32:54.893Z,7.65
2022-08-30T09:35:37.289Z,8.75
2022-08-30T09:38:17.997Z,8.73
2022-08-30T09:43:34.676Z,8.23
2022-08-30T09:46:02.714Z,10.45
2022-08-30T09:48:33.394Z,9.15
2022-08-30T09:51:12.049Z,10.02
2022-08-30T09:56:53.951Z,6.35
2022-08-30T10:00:04.396Z,7.65
2022-08-30T10:02:48.428Z,9.55
2022-08-30T10:05:30.817Z,9.38
2022-08-30T10:08:25.243Z,11.13
2022-08-30T10:11:15.878Z,11.73
2022-08-30T10:14:05.551Z,9.57
2022-08-30T10:16:45.799Z,9.75
2022-08-30T10:19:20.833Z,7.43
2022-08-30T10:22:06.928Z,12.07
2022-08-30T10:24:42.639Z,13.30
2022-08-30T10:27:28.630Z,8.77
2022-08-30T10:30:06.144Z,5.30
2022-08-30T10:32:54.481Z,13.13
2022-08-30T10:35:23.585Z,10.55
2022-08-30T10:38:20.451Z,6.43
2022-08-30T10:41:13.366Z,9.20
2022-08-30T10:43:51.008Z,8.93
2022-08-30T10:46:39.737Z,9.15
2022-08-30T10:49:15.424Z,10.80
2022-08-30T10:51:55.671Z,9.75
2022-08-30T10:54:58.751Z,5.90
2022-08-30T10:57:26.924Z,8.20
2022-08-30T11:00:08.238Z,7.38
2022-08-30T11:03:12.601Z,9.13
2022-08-30T11:06:17.627Z,10.32
2022-08-30T11:09:17.147Z,5.40
2022-08-30T11:12:22.044Z,7.40
2022-08-30T11:14:49.564Z,5.93
2022-08-30T11:17:44.018Z,6.15
2022-08-30T11:20:34.471Z,5.70
2022-08-30T11:23:20.915Z,4.87
2022-08-30T11:25:57.881Z,8.55
2022-08-30T11:28:38.490Z,9.63
2022-08-30T11:31:09.358Z,8.05
2022-08-30T11:33:48.024Z,6.15
2022-08-30T11:36:37.742Z,10.70
2022-08-30T11:39:07.534Z,6.20
2022-08-30T11:41:43.258Z,4.38
2022-08-30T11:44:22.072Z,9.25
2022-08-30T11:46:55.238Z,5.40
2022-08-30T11:49:30.103Z,6.50
2022-08-30T11:52:27.656Z,5.40
2022-08-30T11:55:22.308Z,6.35
2022-08-30T11:58:15.529Z,8.48
2022-08-30T12:00:52.908Z,7.00
2022-08-30T12:03:21.938Z,7.43
2022-08-30T12:05:52.302Z,6.22
2022-08-30T12:08:19.805Z,5.05
2022-08-30T12:11:00.506Z,8.38
2022-08-30T12:13:37.972Z,7.50
2022-08-30T12:16:05.974Z,9.38
2022-08-30T12:18:49.245Z,6.93
2022-08-30T12:21:24.471Z,6.27
2022-08-30T12:24:03.807Z,7.13
2022-08-30T12:26:35.902Z,7.15
2022-08-30T12:29:14.751Z,5.93
2022-08-30T12:32:00.137Z,7.70
2022-08-30T12:34:43.755Z,9.80
2022-08-30T12:37:31.245Z,8.70
2022-08-30T12:40:10.343Z,5.13
2022-08-30T12:42:41.844Z,6.43
2022-08-30T12:45:16.595Z,7.80
2022-08-30T12:47:46.553Z,5.55
2022-08-30T12:50:19.074Z,5.25
2022-08-30T12:52:56.419Z,4.78
2022-08-30T12:55:30.484Z,6.00
2022-08-30T12:58:09.333Z,6.50
2022-08-30T13:00:40.584Z,4.28
2022-08-30T13:05:53.341Z,10.15
2022-08-30T13:08:35.789Z,7.23
2022-08-30T13:11:31.492Z,6.28
2022-08-30T13:14:20.775Z,6.47
2022-08-30T13:16:49.355Z,5.32
2022-08-30T13:19:37.255Z,9.85
2022-08-30T13:22:07.373Z,10.48
2022-08-30T13:24:35.422Z,8.43
2022-08-30T13:27:11.799Z,5.57
2022-08-30T13:29:40.522Z,12.23
2022-08-30T13:32:10.385Z,10.07
2022-08-30T13:34:39.159Z,8.68
2022-08-30T13:40:43.644Z,4.72
2022-08-30T13:43:27.113Z,8.27
2022-08-30T13:46:06.747Z,9.93
2022-08-30T13:48:38.040Z,3.78
2022-08-30T13:51:05.984Z,7.13
2022-08-30T13:53:52.558Z,8.10
2022-08-30T13:56:21.609Z,7.70
2022-08-30T13:58:52.750Z,4.82
2022-08-30T14:01:27.797Z,5.90
2022-08-30T14:04:15.456Z,9.85
2022-08-30T14:09:36.987Z,10.65
2022-08-30T14:12:05.255Z,8.60
2022-08-30T14:14:42.615Z,7.28
2022-08-30T14:17:14.382Z,8.32
2022-08-30T14:19:42.157Z,6.22
2022-08-30T14:22:19.844Z,8.55
2022-08-30T14:24:47.809Z,4.57
2022-08-30T14:27:23.845Z,4.97
2022-08-30T14:29:55.161Z,9.45
2022-08-30T14:32:25.835Z,4.60
2022-08-30T14:34:56.614Z,9.13
2022-08-30T14:37:26.948Z,5.00
2022-08-30T14:39:55.108Z,9.73
2022-08-30T14:42:23.064Z,8.45
2022-08-30T14:44:58.262Z,6.35
2022-08-30T14:47:28.786Z,5.32
2022-08-30T14:50:01.869Z,6.50
2022-08-30T14:52:31.016Z,6.45
2022-08-30T14:55:05.257Z,6.68
2022-08-30T14:57:38.924Z,6.13
2022-08-30T15:00:10.323Z,6.45
2022-08-30T15:02:38.203Z,6.78
2022-08-30T15:05:07.004Z,6.18
2022-08-30T15:07:37.583Z,7.10
2022-08-30T15:10:07.345Z,7.10
2022-08-30T15:12:38.973Z,7.65
2022-08-30T15:15:11.361Z,10.05
2022-08-30T15:17:39.049Z,6.32
2022-08-30T15:20:10.621Z,7.03
2022-08-30T15:22:39.091Z,9.68
2022-08-30T15:25:09.691Z,6.32
2022-08-30T15:27:37.479Z,7.03
2022-08-30T15:30:10.980Z,7.70
2022-08-30T15:32:41.947Z,5.47
2022-08-30T15:37:39.987Z,4.78
2022-08-30T15:40:11.780Z,4.95
2022-08-30T15:42:40.767Z,9.37
2022-08-30T15:45:12.943Z,7.05
2022-08-30T15:47:40.543Z,7.95
2022-08-30T15:50:11.645Z,9.05
2022-08-30T15:52:39.371Z,9.75
2022-08-30T15:55:08.409Z,6.60
2022-08-30T15:57:38.414Z,6.80
2022-08-30T16:00:08.938Z,8.57
2022-08-30T16:02:38.067Z,4.03
2022-08-30T16:05:07.700Z,5.50
2022-08-30T16:07:40.778Z,7.22
2022-08-30T16:10:09.639Z,6.78
2022-08-30T16:12:37.288Z,6.47
2022-08-30T16:15:11.713Z,7.55
2022-08-30T16:17:39.490Z,6.43
2022-08-30T16:20:08.812Z,8.00
2022-08-30T16:22:36.514Z,3.38
2022-08-30T16:25:08.508Z,7.65
2022-08-30T16:27:43.184Z,8.88
2022-08-30T16:30:14.329Z,8.73
2022-08-30T16:32:42.179Z,6.15
2022-08-30T16:35:09.846Z,7.40
2022-08-30T16:37:38.139Z,7.80
2022-08-30T16:40:07.008Z,3.53
2022-08-30T16:42:34.791Z,4.50
2022-08-30T16:45:04.526Z,4.25
2022-08-30T16:47:40.188Z,6.28
2022-08-30T16:50:08.870Z,6.68
2022-08-30T16:52:37.667Z,5.78
2022-08-30T16:55:07.269Z,6.40
2022-08-30T16:57:38.598Z,4.70
2022-08-30T17:02:59.975Z,5.40
2022-08-30T17:05:28.098Z,7.22
2022-08-30T17:08:00.073Z,40.85
2022-08-30T17:10:31.352Z,103.63
2022-08-30T17:13:05.552Z,109.40
2022-08-30T17:15:33.395Z,80.60
2022-08-30T17:18:02.534Z,34.35
2022-08-30T17:20:33.851Z,22.38
2022-08-30T17:23:02.653Z,16.52
2022-08-30T17:25:33.921Z,9.73
2022-08-30T17:28:02.183Z,4.95
2022-08-30T17:30:30.023Z,3.78
2022-08-30T17:32:57.690Z,5.97
2022-08-30T17:35:25.343Z,5.32
2022-08-30T17:37:53.103Z,4.75
2022-08-30T17:40:21.092Z,5.15
2022-08-30T17:42:53.107Z,6.00
2022-08-30T17:45:21.255Z,5.68
2022-08-30T17:47:49.758Z,5.60
2022-08-30T17:50:20.322Z,5.97
2022-08-30T17:52:48.020Z,6.55
2022-08-30T17:55:16.164Z,6.28
2022-08-30T17:57:48.141Z,6.25
2022-08-30T18:00:20.549Z,5.20
2022-08-30T18:02:48.918Z,12.13
2022-08-30T18:05:16.595Z,7.75
2022-08-30T18:07:52.471Z,5.70
2022-08-30T18:10:20.237Z,5.90
2022-08-30T18:12:58.762Z,5.85
2022-08-30T18:15:26.445Z,9.35
2022-08-30T18:17:56.071Z,7.10
2022-08-30T18:20:26.407Z,5.32
2022-08-30T18:22:54.892Z,4.65
2022-08-30T18:25:23.178Z,10.63
2022-08-30T18:27:57.268Z,8.27
2022-08-30T18:30:34.057Z,7.47
2022-08-30T18:33:06.816Z,5.78
2022-08-30T18:35:37.696Z,6.82
2022-08-30T18:38:06.339Z,7.35
2022-08-30T18:40:34.259Z,9.85
2022-08-30T18:43:07.775Z,5.68
2022-08-30T18:45:37.996Z,5.07
2022-08-30T18:48:06.411Z,6.30
2022-08-30T18:50:34.577Z,5.90
2022-08-30T18:53:02.897Z,8.93
2022-08-30T18:55:31.178Z,6.78
2022-08-30T18:57:59.217Z,5.57
2022-08-30T19:00:30.469Z,8.30
2022-08-30T19:02:58.916Z,8.38
2022-08-30T19:05:27.496Z,6.25
2022-08-30T19:07:57.519Z,8.90
2022-08-30T19:10:27.431Z,9.48
2022-08-30T19:12:59.740Z,8.52
2022-08-30T19:15:27.821Z,7.38
2022-08-30T19:17:55.886Z,5.68
2022-08-30T19:20:26.859Z,6.47
2022-08-30T19:23:10.936Z,8.25
2022-08-30T19:25:44.444Z,6.60
2022-08-30T19:28:18.757Z,10.23
2022-08-30T19:30:50.559Z,8.93
2022-08-30T19:33:27.215Z,6.82
2022-08-30T19:36:01.270Z,8.27
2022-08-30T19:38:30.495Z,12.00
2022-08-30T19:41:03.172Z,8.73
2022-08-30T19:43:31.744Z,8.80
2022-08-30T19:46:01.826Z,5.78
2022-08-30T19:48:37.843Z,8.33
2022-08-30T19:51:11.797Z,8.13
2022-08-30T19:53:45.309Z,6.38
2022-08-30T19:56:13.541Z,9.88
2022-08-30T19:58:41.520Z,10.43
2022-08-30T20:01:10.904Z,9.68
2022-08-30T20:03:41.803Z,8.88
2022-08-30T20:06:09.842Z,9.40
2022-08-30T20:08:38.068Z,7.78
2022-08-30T20:11:06.292Z,12.00
2022-08-30T20:13:34.464Z,8.80
2022-08-30T20:16:03.837Z,8.27
2022-08-30T20:18:32.519Z,7.95
2022-08-30T20:21:01.598Z,10.63
2022-08-30T20:23:30.557Z,6.15
2022-08-30T20:24:23.218Z,4.65
2022-08-30T20:26:06.154Z,7.20
2022-08-30T20:28:34.100Z,11.40
2022-08-30T20:31:05.874Z,9.50
2022-08-30T20:33:56.797Z,6.20
2022-08-30T20:36:25.561Z,8.70
2022-08-30T20:38:54.679Z,7.22
2022-08-30T20:41:25.647Z,6.75
2022-08-30T20:43:55.155Z,4.90
2022-08-30T20:46:23.118Z,5.93
2022-08-30T20:48:50.951Z,8.95
2022-08-30T20:51:23.752Z,9.25
2022-08-30T20:53:52.914Z,11.77
2022-08-30T20:56:27.665Z,8.98
2022-08-30T20:58:55.885Z,11.07
2022-08-30T21:01:23.653Z,7.75
2022-08-30T21:03:51.617Z,7.82
2022-08-30T21:06:21.694Z,9.02
2022-08-30T21:08:52.501Z,4.30
2022-08-30T21:13:48.533Z,7.95
2022-08-30T21:16:22.422Z,8.18
2022-08-30T21:18:59.391Z,8.63
2022-08-30T21:21:30.393Z,8.30
2022-08-30T21:24:09.520Z,9.65
2022-08-30T21:26:41.741Z,8.77
2022-08-30T21:29:10.001Z,7.22
2022-08-30T21:31:38.301Z,7.90
2022-08-30T21:34:07.196Z,5.25
2022-08-30T21:36:54.894Z,10.97
2022-08-30T21:39:27.983Z,7.72
2022-08-30T21:41:59.567Z,7.30
2022-08-30T21:44:28.199Z,4.57
2022-08-30T21:47:00.721Z,6.38
2022-08-30T21:49:32.506Z,8.63
2022-08-30T21:52:01.182Z,5.25
2022-08-30T21:54:32.342Z,6.47
2022-08-30T21:57:01.603Z,6.50
2022-08-30T21:59:29.261Z,9.13
2022-08-30T22:01:57.573Z,9.20
2022-08-30T22:04:29.671Z,5.50
2022-08-30T22:07:08.131Z,6.45
2022-08-30T22:09:42.252Z,8.38
2022-08-30T22:12:10.620Z,8.30
2022-08-30T22:14:42.410Z,6.53
2022-08-30T22:17:11.802Z,5.75
2022-08-30T22:19:42.636Z,8.75
2022-08-30T22:22:11.118Z,9.27
2022-08-30T22:24:39.689Z,6.32
2022-08-30T22:27:07.771Z,7.72
2022-08-30T22:29:37.017Z,9.68
2022-08-30T22:32:11.665Z,4.68
2022-08-30T22:34:39.242Z,14.88
2022-08-30T22:37:07.647Z,9.80
2022-08-30T22:39:35.223Z,6.90
2022-08-30T22:42:03.033Z,6.25
2022-08-30T22:44:30.609Z,5.00
2022-08-30T22:46:58.455Z,7.43
2022-08-30T22:49:26.220Z,6.13
2022-08-30T22:51:53.927Z,4.78
2022-08-30T22:54:22.218Z,7.45
2022-08-30T22:56:50.243Z,7.05
2022-08-30T22:59:21.340Z,4.97
2022-08-30T23:02:04.205Z,6.28
2022-08-30T23:04:34.844Z,11.60
2022-08-30T23:07:04.635Z,12.02
2022-08-30T23:09:32.319Z,9.55
2022-08-30T23:12:02.881Z,5.80
2022-08-30T23:14:30.654Z,7.35
2022-08-30T23:17:01.332Z,3.33
2022-08-30T23:19:32.116Z,6.68
2022-08-30T23:22:00.838Z,7.82
2022-08-30T23:24:54.838Z,9.90
2022-08-30T23:27:41.777Z,4.85
2022-08-30T23:30:32.072Z,6.63
2022-08-30T23:33:22.558Z,6.20
2022-08-30T23:36:12.243Z,6.22
2022-08-30T23:38:58.908Z,8.82
2022-08-30T23:41:44.881Z,7.40
2022-08-30T23:44:33.632Z,19.88
2022-08-30T23:47:19.782Z,4.10
2022-08-30T23:50:05.929Z,5.32
2022-08-30T23:52:59.897Z,3.92
2022-08-30T23:55:48.320Z,8.10
2022-08-30T23:58:35.506Z,8.98
